sensor_id;sensor_type;location;lat;lon;timestamp;pressure;altitude;pressure_sealevel;temperature;humidity
68077;BME280;54866;53.458;14.540;2022-08-19T00:02:11;100245.25;;;20.79;77.83
68077;BME280;54866;53.458;14.540;2022-08-19T00:04:41;100243.17;;;20.91;77.37
68077;BME280;54866;53.458;14.540;2022-08-19T00:07:10;100239.16;;;21.04;77.10
68077;BME280;54866;53.458;14.540;2022-08-19T00:09:41;100233.94;;;21.18;76.93
68077;BME280;54866;53.458;14.540;2022-08-19T00:12:20;100237.19;;;21.29;76.80
68077;BME280;54866;53.458;14.540;2022-08-19T00:14:50;100242.46;;;21.42;76.34
68077;BME280;54866;53.458;14.540;2022-08-19T00:17:22;100249.34;;;21.55;75.75
68077;BME280;54866;53.458;14.540;2022-08-19T00:19:54;100250.39;;;21.66;75.06
68077;BME280;54866;53.458;14.540;2022-08-19T00:22:24;100253.23;;;21.75;74.63
68077;BME280;54866;53.458;14.540;2022-08-19T00:24:55;100249.60;;;21.76;76.37
68077;BME280;54866;53.458;14.540;2022-08-19T00:27:25;100251.26;;;21.61;77.75
68077;BME280;54866;53.458;14.540;2022-08-19T00:29:54;100248.80;;;21.46;77.18
68077;BME280;54866;53.458;14.540;2022-08-19T00:32:24;100246.45;;;21.49;75.74
68077;BME280;54866;53.458;14.540;2022-08-19T00:34:54;100241.90;;;21.56;74.76
68077;BME280;54866;53.458;14.540;2022-08-19T00:37:25;100241.26;;;21.67;73.81
68077;BME280;54866;53.458;14.540;2022-08-19T00:39:56;100235.41;;;21.83;73.32
68077;BME280;54866;53.458;14.540;2022-08-19T00:42:26;100234.82;;;21.93;73.36
68077;BME280;54866;53.458;14.540;2022-08-19T00:44:57;100230.73;;;21.96;73.95
68077;BME280;54866;53.458;14.540;2022-08-19T00:47:27;100231.55;;;21.96;74.72
68077;BME280;54866;53.458;14.540;2022-08-19T00:49:58;100226.74;;;21.94;74.92
68077;BME280;54866;53.458;14.540;2022-08-19T00:52:32;100227.79;;;21.94;75.19
68077;BME280;54866;53.458;14.540;2022-08-19T00:55:04;100229.56;;;21.96;75.46
68077;BME280;54866;53.458;14.540;2022-08-19T00:57:39;100225.00;;;21.96;75.77
68077;BME280;54866;53.458;14.540;2022-08-19T01:00:14;100217.31;;;21.95;76.06
68077;BME280;54866;53.458;14.540;2022-08-19T01:02:46;100216.32;;;21.93;76.25
68077;BME280;54866;53.458;14.540;2022-08-19T01:05:20;100212.42;;;21.91;76.48
68077;BME280;54866;53.458;14.540;2022-08-19T01:07:51;100202.56;;;21.87;77.15
68077;BME280;54866;53.458;14.540;2022-08-19T01:10:26;100194.39;;;21.84;77.35
68077;BME280;54866;53.458;14.540;2022-08-19T01:12:57;100193.82;;;21.81;77.73
68077;BME280;54866;53.458;14.540;2022-08-19T01:15:31;100190.01;;;21.78;77.90
68077;BME280;54866;53.458;14.540;2022-08-19T01:18:06;100189.55;;;21.72;78.35
68077;BME280;54866;53.458;14.540;2022-08-19T01:20:38;100182.41;;;21.65;79.05
68077;BME280;54866;53.458;14.540;2022-08-19T01:23:09;100177.40;;;21.58;79.30
68077;BME280;54866;53.458;14.540;2022-08-19T01:25:44;100174.59;;;21.55;79.41
68077;BME280;54866;53.458;14.540;2022-08-19T01:28:19;100175.16;;;21.54;79.89
68077;BME280;54866;53.458;14.540;2022-08-19T01:30:51;100176.43;;;21.52;79.84
68077;BME280;54866;53.458;14.540;2022-08-19T01:33:22;100176.05;;;21.52;80.10
68077;BME280;54866;53.458;14.540;2022-08-19T01:35:52;100177.02;;;21.52;80.21
68077;BME280;54866;53.458;14.540;2022-08-19T01:38:24;100174.39;;;21.50;80.41
68077;BME280;54866;53.458;14.540;2022-08-19T01:40:55;100170.50;;;21.48;80.49
68077;BME280;54866;53.458;14.540;2022-08-19T01:43:25;100171.46;;;21.49;80.26
68077;BME280;54866;53.458;14.540;2022-08-19T01:45:55;100169.63;;;21.49;80.15
68077;BME280;54866;53.458;14.540;2022-08-19T01:48:25;100167.11;;;21.49;80.11
68077;BME280;54866;53.458;14.540;2022-08-19T01:50:54;100163.96;;;21.49;80.01
68077;BME280;54866;53.458;14.540;2022-08-19T01:53:25;100159.58;;;21.48;79.73
68077;BME280;54866;53.458;14.540;2022-08-19T01:55:55;100152.14;;;21.46;79.91
68077;BME280;54866;53.458;14.540;2022-08-19T01:58:29;100149.27;;;21.42;79.82
68077;BME280;54866;53.458;14.540;2022-08-19T02:01:00;100149.70;;;21.38;79.95
68077;BME280;54866;53.458;14.540;2022-08-19T02:03:29;100147.63;;;21.31;80.23
68077;BME280;54866;53.458;14.540;2022-08-19T02:06:01;100148.13;;;21.22;80.44
68077;BME280;54866;53.458;14.540;2022-08-19T02:08:32;100150.13;;;21.18;80.57
68077;BME280;54866;53.458;14.540;2022-08-19T02:11:03;100143.08;;;21.12;80.53
68077;BME280;54866;53.458;14.540;2022-08-19T02:13:34;100142.12;;;21.05;80.66
68077;BME280;54866;53.458;14.540;2022-08-19T02:16:05;100145.28;;;21.00;80.74
68077;BME280;54866;53.458;14.540;2022-08-19T02:18:35;100151.58;;;20.95;80.61
68077;BME280;54866;53.458;14.540;2022-08-19T02:21:05;100150.65;;;20.89;80.82
68077;BME280;54866;53.458;14.540;2022-08-19T02:23:35;100151.71;;;20.87;80.53
68077;BME280;54866;53.458;14.540;2022-08-19T02:26:05;100153.23;;;20.84;80.88
68077;BME280;54866;53.458;14.540;2022-08-19T02:28:35;100156.98;;;20.79;80.87
68077;BME280;54866;53.458;14.540;2022-08-19T02:31:10;100159.25;;;20.74;81.03
68077;BME280;54866;53.458;14.540;2022-08-19T02:33:40;100158.95;;;20.71;80.89
68077;BME280;54866;53.458;14.540;2022-08-19T02:36:13;100154.93;;;20.69;80.77
68077;BME280;54866;53.458;14.540;2022-08-19T02:38:44;100143.77;;;20.67;80.68
68077;BME280;54866;53.458;14.540;2022-08-19T02:41:18;100142.03;;;20.62;80.83
68077;BME280;54866;53.458;14.540;2022-08-19T02:43:48;100136.93;;;20.57;80.86
68077;BME280;54866;53.458;14.540;2022-08-19T02:46:21;100136.13;;;20.54;80.38
68077;BME280;54866;53.458;14.540;2022-08-19T02:48:53;100136.94;;;20.50;80.26
68077;BME280;54866;53.458;14.540;2022-08-19T02:51:25;100137.15;;;20.50;80.17
68077;BME280;54866;53.458;14.540;2022-08-19T02:53:56;100134.50;;;20.49;80.09
68077;BME280;54866;53.458;14.540;2022-08-19T02:56:27;100129.91;;;20.45;80.35
68077;BME280;54866;53.458;14.540;2022-08-19T02:58:57;100128.98;;;20.41;80.03
68077;BME280;54866;53.458;14.540;2022-08-19T03:01:29;100133.07;;;20.41;79.68
68077;BME280;54866;53.458;14.540;2022-08-19T03:04:01;100130.85;;;20.42;79.83
68077;BME280;54866;53.458;14.540;2022-08-19T03:06:31;100134.70;;;20.43;79.82
68077;BME280;54866;53.458;14.540;2022-08-19T03:09:01;100129.45;;;20.42;80.03
68077;BME280;54866;53.458;14.540;2022-08-19T03:11:32;100135.75;;;20.41;80.31
68077;BME280;54866;53.458;14.540;2022-08-19T03:14:04;100138.21;;;20.40;80.68
68077;BME280;54866;53.458;14.540;2022-08-19T03:16:40;100139.02;;;20.41;80.97
68077;BME280;54866;53.458;14.540;2022-08-19T03:19:11;100141.41;;;20.39;81.22
68077;BME280;54866;53.458;14.540;2022-08-19T03:21:41;100136.29;;;20.37;81.24
68077;BME280;54866;53.458;14.540;2022-08-19T03:24:14;100139.21;;;20.35;81.68
68077;BME280;54866;53.458;14.540;2022-08-19T03:26:47;100138.70;;;20.32;82.36
68077;BME280;54866;53.458;14.540;2022-08-19T03:29:18;100145.10;;;20.31;82.53
68077;BME280;54866;53.458;14.540;2022-08-19T03:31:49;100143.36;;;20.31;82.59
68077;BME280;54866;53.458;14.540;2022-08-19T03:34:22;100136.34;;;20.31;82.73
68077;BME280;54866;53.458;14.540;2022-08-19T03:36:55;100135.23;;;20.32;82.92
68077;BME280;54866;53.458;14.540;2022-08-19T03:39:26;100130.08;;;20.30;83.20
68077;BME280;54866;53.458;14.540;2022-08-19T03:41:56;100134.15;;;20.29;83.06
68077;BME280;54866;53.458;14.540;2022-08-19T03:44:28;100136.25;;;20.28;83.13
68077;BME280;54866;53.458;14.540;2022-08-19T03:46:59;100141.70;;;20.27;83.49
68077;BME280;54866;53.458;14.540;2022-08-19T03:49:31;100140.13;;;20.26;83.50
68077;BME280;54866;53.458;14.540;2022-08-19T03:52:04;100139.77;;;20.23;83.75
68077;BME280;54866;53.458;14.540;2022-08-19T03:54:36;100146.64;;;20.23;83.71
68077;BME280;54866;53.458;14.540;2022-08-19T03:57:07;100144.02;;;20.23;83.67
68077;BME280;54866;53.458;14.540;2022-08-19T03:59:38;100145.93;;;20.22;84.12
68077;BME280;54866;53.458;14.540;2022-08-19T04:02:11;100146.47;;;20.24;84.22
68077;BME280;54866;53.458;14.540;2022-08-19T04:04:44;100147.66;;;20.23;84.65
68077;BME280;54866;53.458;14.540;2022-08-19T04:07:15;100153.56;;;20.23;84.64
68077;BME280;54866;53.458;14.540;2022-08-19T04:09:46;100159.57;;;20.25;84.60
68077;BME280;54866;53.458;14.540;2022-08-19T04:12:16;100172.20;;;20.26;84.33
68077;BME280;54866;53.458;14.540;2022-08-19T04:14:50;100175.23;;;20.28;84.34
68077;BME280;54866;53.458;14.540;2022-08-19T04:17:20;100179.83;;;20.30;84.18
68077;BME280;54866;53.458;14.540;2022-08-19T04:19:50;100193.95;;;20.30;84.12
68077;BME280;54866;53.458;14.540;2022-08-19T04:22:20;100211.05;;;20.30;84.69
68077;BME280;54866;53.458;14.540;2022-08-19T04:24:50;100213.27;;;20.26;85.35
68077;BME280;54866;53.458;14.540;2022-08-19T04:27:20;100211.80;;;20.20;85.85
68077;BME280;54866;53.458;14.540;2022-08-19T04:29:50;100201.55;;;20.18;85.63
68077;BME280;54866;53.458;14.540;2022-08-19T04:32:20;100197.90;;;20.15;85.76
68077;BME280;54866;53.458;14.540;2022-08-19T04:34:51;100209.41;;;20.15;85.40
68077;BME280;54866;53.458;14.540;2022-08-19T04:37:21;100223.30;;;20.17;85.84
68077;BME280;54866;53.458;14.540;2022-08-19T04:39:51;100227.41;;;20.11;87.18
68077;BME280;54866;53.458;14.540;2022-08-19T04:42:39;100222.85;;;20.05;87.58
68077;BME280;54866;53.458;14.540;2022-08-19T04:45:12;100212.89;;;20.03;87.20
68077;BME280;54866;53.458;14.540;2022-08-19T04:47:44;100222.77;;;20.04;86.96
68077;BME280;54866;53.458;14.540;2022-08-19T04:50:14;100233.50;;;20.04;87.23
68077;BME280;54866;53.458;14.540;2022-08-19T04:52:44;100239.56;;;20.00;87.85
68077;BME280;54866;53.458;14.540;2022-08-19T04:55:14;100239.45;;;19.97;87.67
68077;BME280;54866;53.458;14.540;2022-08-19T04:57:44;100233.27;;;19.95;88.00
68077;BME280;54866;53.458;14.540;2022-08-19T05:00:14;100232.51;;;19.93;87.80
68077;BME280;54866;53.458;14.540;2022-08-19T05:02:44;100239.92;;;19.92;87.80
68077;BME280;54866;53.458;14.540;2022-08-19T05:05:15;100246.66;;;19.92;88.06
68077;BME280;54866;53.458;14.540;2022-08-19T05:07:44;100245.29;;;19.92;88.55
68077;BME280;54866;53.458;14.540;2022-08-19T05:10:14;100228.78;;;19.90;88.36
68077;BME280;54866;53.458;14.540;2022-08-19T05:12:44;100233.86;;;19.93;88.35
68077;BME280;54866;53.458;14.540;2022-08-19T05:15:14;100251.73;;;19.93;88.87
68077;BME280;54866;53.458;14.540;2022-08-19T05:17:45;100253.16;;;19.94;88.93
68077;BME280;54866;53.458;14.540;2022-08-19T05:20:34;100236.42;;;20.00;88.82
68077;BME280;54866;53.458;14.540;2022-08-19T05:23:24;100221.12;;;20.04;88.92
68077;BME280;54866;53.458;14.540;2022-08-19T05:25:54;100230.39;;;20.12;89.13
68077;BME280;54866;53.458;14.540;2022-08-19T05:28:24;100238.25;;;20.26;88.88
68077;BME280;54866;53.458;14.540;2022-08-19T05:30:55;100235.27;;;20.37;88.63
68077;BME280;54866;53.458;14.540;2022-08-19T05:33:24;100227.33;;;20.49;88.20
68077;BME280;54866;53.458;14.540;2022-08-19T05:35:54;100223.58;;;20.67;87.64
68077;BME280;54866;53.458;14.540;2022-08-19T05:38:24;100229.95;;;20.76;87.15
68077;BME280;54866;53.458;14.540;2022-08-19T05:40:56;100236.22;;;20.75;87.19
68077;BME280;54866;53.458;14.540;2022-08-19T05:43:26;100242.58;;;20.73;87.26
68077;BME280;54866;53.458;14.540;2022-08-19T05:45:56;100236.59;;;20.71;87.43
68077;BME280;54866;53.458;14.540;2022-08-19T05:48:26;100225.29;;;20.70;87.26
68077;BME280;54866;53.458;14.540;2022-08-19T05:50:56;100221.44;;;20.68;87.19
68077;BME280;54866;53.458;14.540;2022-08-19T05:53:26;100224.81;;;20.66;87.45
68077;BME280;54866;53.458;14.540;2022-08-19T05:55:56;100232.98;;;20.65;87.64
68077;BME280;54866;53.458;14.540;2022-08-19T05:58:26;100238.77;;;20.63;87.93
68077;BME280;54866;53.458;14.540;2022-08-19T06:00:56;100232.09;;;20.63;87.78
68077;BME280;54866;53.458;14.540;2022-08-19T06:03:26;100229.98;;;20.66;87.59
68077;BME280;54866;53.458;14.540;2022-08-19T06:05:56;100224.09;;;20.67;87.69
68077;BME280;54866;53.458;14.540;2022-08-19T06:08:27;100229.46;;;20.70;87.78
68077;BME280;54866;53.458;14.540;2022-08-19T06:10:57;100226.75;;;20.74;87.58
68077;BME280;54866;53.458;14.540;2022-08-19T06:13:27;100221.20;;;20.83;87.61
68077;BME280;54866;53.458;14.540;2022-08-19T06:15:58;100218.95;;;20.89;87.40
68077;BME280;54866;53.458;14.540;2022-08-19T06:18:28;100227.64;;;20.91;87.45
68077;BME280;54866;53.458;14.540;2022-08-19T06:20:58;100232.63;;;20.90;87.43
68077;BME280;54866;53.458;14.540;2022-08-19T06:23:28;100227.35;;;20.90;87.54
68077;BME280;54866;53.458;14.540;2022-08-19T06:25:59;100222.48;;;20.93;87.44
68077;BME280;54866;53.458;14.540;2022-08-19T06:28:29;100220.95;;;20.93;87.42
68077;BME280;54866;53.458;14.540;2022-08-19T06:30:58;100219.98;;;20.89;87.68
68077;BME280;54866;53.458;14.540;2022-08-19T06:33:30;100218.04;;;20.86;87.87
68077;BME280;54866;53.458;14.540;2022-08-19T06:36:00;100215.48;;;20.87;87.90
68077;BME280;54866;53.458;14.540;2022-08-19T06:38:29;100218.54;;;20.87;87.88
68077;BME280;54866;53.458;14.540;2022-08-19T06:41:03;100217.48;;;20.85;87.94
68077;BME280;54866;53.458;14.540;2022-08-19T06:43:33;100212.79;;;20.83;88.08
68077;BME280;54866;53.458;14.540;2022-08-19T06:46:09;100210.21;;;20.80;87.97
68077;BME280;54866;53.458;14.540;2022-08-19T06:48:39;100205.16;;;20.79;88.00
68077;BME280;54866;53.458;14.540;2022-08-19T06:51:09;100213.76;;;20.77;88.12
68077;BME280;54866;53.458;14.540;2022-08-19T06:53:39;100217.80;;;20.78;88.15
68077;BME280;54866;53.458;14.540;2022-08-19T06:56:09;100229.14;;;20.79;88.05
68077;BME280;54866;53.458;14.540;2022-08-19T06:58:39;100236.00;;;20.80;88.03
68077;BME280;54866;53.458;14.540;2022-08-19T07:01:10;100243.96;;;20.83;87.82
68077;BME280;54866;53.458;14.540;2022-08-19T07:03:40;100243.86;;;20.86;87.63
68077;BME280;54866;53.458;14.540;2022-08-19T07:06:14;100230.28;;;20.90;87.41
68077;BME280;54866;53.458;14.540;2022-08-19T07:08:46;100220.23;;;20.95;87.17
68077;BME280;54866;53.458;14.540;2022-08-19T07:11:18;100207.26;;;21.03;86.99
68077;BME280;54866;53.458;14.540;2022-08-19T07:13:49;100198.92;;;21.08;86.73
68077;BME280;54866;53.458;14.540;2022-08-19T07:16:20;100186.77;;;21.09;86.60
68077;BME280;54866;53.458;14.540;2022-08-19T07:18:51;100175.94;;;21.10;86.65
68077;BME280;54866;53.458;14.540;2022-08-19T07:21:24;100175.52;;;21.11;86.64
68077;BME280;54866;53.458;14.540;2022-08-19T07:23:56;100172.64;;;21.13;86.75
68077;BME280;54866;53.458;14.540;2022-08-19T07:26:28;100171.73;;;21.16;86.74
68077;BME280;54866;53.458;14.540;2022-08-19T07:28:58;100173.35;;;21.17;86.76
68077;BME280;54866;53.458;14.540;2022-08-19T07:31:30;100177.13;;;21.17;86.92
68077;BME280;54866;53.458;14.540;2022-08-19T07:34:00;100185.50;;;21.21;86.89
68077;BME280;54866;53.458;14.540;2022-08-19T07:36:30;100185.61;;;21.25;86.81
68077;BME280;54866;53.458;14.540;2022-08-19T07:39:03;100184.47;;;21.29;87.22
68077;BME280;54866;53.458;14.540;2022-08-19T07:41:36;100186.73;;;21.31;87.21
68077;BME280;54866;53.458;14.540;2022-08-19T07:44:08;100178.14;;;21.32;87.40
68077;BME280;54866;53.458;14.540;2022-08-19T07:46:41;100176.37;;;21.33;87.34
68077;BME280;54866;53.458;14.540;2022-08-19T07:49:13;100181.75;;;21.32;87.85
68077;BME280;54866;53.458;14.540;2022-08-19T07:51:54;100178.55;;;21.28;88.07
68077;BME280;54866;53.458;14.540;2022-08-19T07:54:27;100183.54;;;21.25;88.29
68077;BME280;54866;53.458;14.540;2022-08-19T07:56:57;100182.23;;;21.22;88.50
68077;BME280;54866;53.458;14.540;2022-08-19T07:59:29;100180.97;;;21.18;88.52
68077;BME280;54866;53.458;14.540;2022-08-19T08:01:59;100186.13;;;21.17;88.03
68077;BME280;54866;53.458;14.540;2022-08-19T08:04:31;100196.88;;;21.16;87.77
68077;BME280;54866;53.458;14.540;2022-08-19T08:07:19;100208.73;;;21.16;87.35
68077;BME280;54866;53.458;14.540;2022-08-19T08:10:08;100206.57;;;21.18;87.61
68077;BME280;54866;53.458;14.540;2022-08-19T08:12:40;100205.80;;;21.15;88.36
68077;BME280;54866;53.458;14.540;2022-08-19T08:15:14;100195.95;;;21.13;88.43
68077;BME280;54866;53.458;14.540;2022-08-19T08:17:45;100191.40;;;21.11;88.60
68077;BME280;54866;53.458;14.540;2022-08-19T08:20:16;100184.31;;;21.03;89.23
68077;BME280;54866;53.458;14.540;2022-08-19T08:22:48;100179.36;;;21.03;88.72
68077;BME280;54866;53.458;14.540;2022-08-19T08:25:36;100180.30;;;21.05;88.90
68077;BME280;54866;53.458;14.540;2022-08-19T08:28:06;100182.84;;;21.07;88.99
68077;BME280;54866;53.458;14.540;2022-08-19T08:30:37;100184.33;;;21.10;88.97
68077;BME280;54866;53.458;14.540;2022-08-19T08:33:10;100179.70;;;21.14;89.18
68077;BME280;54866;53.458;14.540;2022-08-19T08:35:41;100169.20;;;21.13;89.51
68077;BME280;54866;53.458;14.540;2022-08-19T08:38:11;100161.06;;;21.21;89.71
68077;BME280;54866;53.458;14.540;2022-08-19T08:40:45;100163.70;;;21.25;89.51
68077;BME280;54866;53.458;14.540;2022-08-19T08:43:24;100166.53;;;21.32;89.38
68077;BME280;54866;53.458;14.540;2022-08-19T08:46:09;100174.85;;;21.34;89.66
68077;BME280;54866;53.458;14.540;2022-08-19T08:48:46;100183.36;;;21.31;90.15
68077;BME280;54866;53.458;14.540;2022-08-19T08:51:20;100187.82;;;21.28;90.26
68077;BME280;54866;53.458;14.540;2022-08-19T08:53:54;100196.91;;;21.27;90.34
68077;BME280;54866;53.458;14.540;2022-08-19T08:56:25;100199.71;;;21.25;90.58
68077;BME280;54866;53.458;14.540;2022-08-19T08:58:59;100200.27;;;21.22;90.87
68077;BME280;54866;53.458;14.540;2022-08-19T09:01:32;100197.98;;;21.21;91.09
68077;BME280;54866;53.458;14.540;2022-08-19T09:04:04;100191.14;;;21.17;91.13
68077;BME280;54866;53.458;14.540;2022-08-19T09:06:40;100188.27;;;21.15;90.98
68077;BME280;54866;53.458;14.540;2022-08-19T09:09:20;100187.89;;;21.14;91.06
68077;BME280;54866;53.458;14.540;2022-08-19T09:12:03;100187.84;;;21.09;91.43
68077;BME280;54866;53.458;14.540;2022-08-19T09:14:42;100193.58;;;21.03;91.69
68077;BME280;54866;53.458;14.540;2022-08-19T09:17:16;100189.86;;;20.99;92.13
68077;BME280;54866;53.458;14.540;2022-08-19T09:19:53;100180.75;;;20.96;92.70
68077;BME280;54866;53.458;14.540;2022-08-19T09:22:24;100178.98;;;20.96;93.35
68077;BME280;54866;53.458;14.540;2022-08-19T09:24:56;100176.61;;;21.02;92.96
68077;BME280;54866;53.458;14.540;2022-08-19T09:27:26;100173.41;;;21.12;92.36
68077;BME280;54866;53.458;14.540;2022-08-19T09:29:57;100175.57;;;21.26;91.82
68077;BME280;54866;53.458;14.540;2022-08-19T09:32:28;100165.77;;;21.38;91.40
68077;BME280;54866;53.458;14.540;2022-08-19T09:34:58;100162.78;;;21.51;90.95
68077;BME280;54866;53.458;14.540;2022-08-19T09:37:30;100147.33;;;21.60;91.00
68077;BME280;54866;53.458;14.540;2022-08-19T09:40:00;100137.89;;;21.66;90.92
68077;BME280;54866;53.458;14.540;2022-08-19T09:42:31;100137.80;;;21.67;91.05
68077;BME280;54866;53.458;14.540;2022-08-19T09:45:02;100132.63;;;21.73;90.84
68077;BME280;54866;53.458;14.540;2022-08-19T09:47:32;100137.66;;;21.83;90.58
68077;BME280;54866;53.458;14.540;2022-08-19T09:50:06;100141.64;;;21.97;90.04
68077;BME280;54866;53.458;14.540;2022-08-19T09:52:36;100140.63;;;22.09;89.41
68077;BME280;54866;53.458;14.540;2022-08-19T09:55:08;100138.17;;;22.21;88.99
68077;BME280;54866;53.458;14.540;2022-08-19T09:57:38;100131.98;;;22.34;88.44
68077;BME280;54866;53.458;14.540;2022-08-19T10:00:10;100141.40;;;22.46;88.19
68077;BME280;54866;53.458;14.540;2022-08-19T10:02:40;100142.58;;;22.52;87.78
68077;BME280;54866;53.458;14.540;2022-08-19T10:05:10;100151.52;;;22.61;87.50
68077;BME280;54866;53.458;14.540;2022-08-19T10:07:58;100152.16;;;22.69;87.14
68077;BME280;54866;53.458;14.540;2022-08-19T10:10:30;100162.27;;;22.72;86.64
68077;BME280;54866;53.458;14.540;2022-08-19T10:13:05;100172.58;;;22.69;86.66
68077;BME280;54866;53.458;14.540;2022-08-19T10:15:36;100189.42;;;22.67;86.97
68077;BME280;54866;53.458;14.540;2022-08-19T10:18:08;100200.23;;;22.68;86.78
68077;BME280;54866;53.458;14.540;2022-08-19T10:20:38;100204.35;;;22.63;86.57
68077;BME280;54866;53.458;14.540;2022-08-19T10:23:10;100212.80;;;22.64;86.69
68077;BME280;54866;53.458;14.540;2022-08-19T10:25:40;100216.08;;;22.62;86.55
68077;BME280;54866;53.458;14.540;2022-08-19T10:28:11;100211.73;;;22.62;86.55
68077;BME280;54866;53.458;14.540;2022-08-19T10:30:41;100202.98;;;22.62;86.25
68077;BME280;54866;53.458;14.540;2022-08-19T10:33:11;100190.83;;;22.68;85.99
68077;BME280;54866;53.458;14.540;2022-08-19T10:35:42;100172.41;;;22.77;86.00
68077;BME280;54866;53.458;14.540;2022-08-19T10:38:13;100154.13;;;22.84;86.01
68077;BME280;54866;53.458;14.540;2022-08-19T10:40:43;100143.24;;;22.92;85.76
68077;BME280;54866;53.458;14.540;2022-08-19T10:43:13;100141.33;;;23.01;85.30
68077;BME280;54866;53.458;14.540;2022-08-19T10:45:43;100141.63;;;23.12;85.23
68077;BME280;54866;53.458;14.540;2022-08-19T10:48:18;100142.06;;;23.21;85.08
68077;BME280;54866;53.458;14.540;2022-08-19T10:50:48;100138.35;;;23.28;84.95
68077;BME280;54866;53.458;14.540;2022-08-19T10:53:36;100128.80;;;23.35;84.48
68077;BME280;54866;53.458;14.540;2022-08-19T10:56:07;100123.57;;;23.40;84.13
68077;BME280;54866;53.458;14.540;2022-08-19T10:58:54;100113.66;;;23.35;83.12
68077;BME280;54866;53.458;14.540;2022-08-19T11:01:26;100106.44;;;23.38;83.43
68077;BME280;54866;53.458;14.540;2022-08-19T11:03:58;100099.63;;;23.45;83.18
68077;BME280;54866;53.458;14.540;2022-08-19T11:06:29;100098.44;;;23.47;82.71
68077;BME280;54866;53.458;14.540;2022-08-19T11:09:00;100092.86;;;23.44;82.68
68077;BME280;54866;53.458;14.540;2022-08-19T11:11:30;100087.86;;;23.47;82.39
68077;BME280;54866;53.458;14.540;2022-08-19T11:14:01;100088.59;;;23.42;82.37
68077;BME280;54866;53.458;14.540;2022-08-19T11:16:31;100087.56;;;23.40;82.13
68077;BME280;54866;53.458;14.540;2022-08-19T11:19:02;100082.66;;;23.40;82.22
68077;BME280;54866;53.458;14.540;2022-08-19T11:21:34;100084.73;;;23.50;82.10
68077;BME280;54866;53.458;14.540;2022-08-19T11:24:07;100077.92;;;23.63;81.86
68077;BME280;54866;53.458;14.540;2022-08-19T11:26:39;100072.79;;;23.71;81.35
68077;BME280;54866;53.458;14.540;2022-08-19T11:29:11;100076.30;;;23.72;81.51
68077;BME280;54866;53.458;14.540;2022-08-19T11:31:44;100080.52;;;23.80;81.39
68077;BME280;54866;53.458;14.540;2022-08-19T11:34:17;100081.71;;;23.91;81.33
68077;BME280;54866;53.458;14.540;2022-08-19T11:36:50;100083.85;;;24.07;80.81
68077;BME280;54866;53.458;14.540;2022-08-19T11:39:21;100085.21;;;24.23;80.23
68077;BME280;54866;53.458;14.540;2022-08-19T11:41:52;100085.79;;;24.39;79.30
68077;BME280;54866;53.458;14.540;2022-08-19T11:44:22;100096.09;;;24.65;78.98
68077;BME280;54866;53.458;14.540;2022-08-19T11:46:52;100091.91;;;25.00;77.75
68077;BME280;54866;53.458;14.540;2022-08-19T11:49:23;100088.97;;;25.27;76.37
68077;BME280;54866;53.458;14.540;2022-08-19T11:51:53;100091.05;;;25.44;74.67
68077;BME280;54866;53.458;14.540;2022-08-19T11:54:24;100091.56;;;25.73;74.96
68077;BME280;54866;53.458;14.540;2022-08-19T11:56:54;100091.29;;;26.06;74.56
68077;BME280;54866;53.458;14.540;2022-08-19T11:59:24;100097.23;;;26.38;74.01
68077;BME280;54866;53.458;14.540;2022-08-19T12:01:55;100098.92;;;26.59;71.50
68077;BME280;54866;53.458;14.540;2022-08-19T12:04:26;100098.39;;;26.76;71.57
68077;BME280;54866;53.458;14.540;2022-08-19T12:06:57;100100.81;;;26.96;70.78
68077;BME280;54866;53.458;14.540;2022-08-19T12:09:27;100101.38;;;27.21;69.61
68077;BME280;54866;53.458;14.540;2022-08-19T12:11:58;100100.66;;;27.42;67.90
68077;BME280;54866;53.458;14.540;2022-08-19T12:14:29;100100.42;;;27.78;67.51
68077;BME280;54866;53.458;14.540;2022-08-19T12:17:00;100104.33;;;28.38;66.26
68077;BME280;54866;53.458;14.540;2022-08-19T12:19:33;100115.02;;;29.13;63.63
68077;BME280;54866;53.458;14.540;2022-08-19T12:22:04;100122.31;;;29.78;62.42
68077;BME280;54866;53.458;14.540;2022-08-19T12:24:36;100127.89;;;30.21;60.28
68077;BME280;54866;53.458;14.540;2022-08-19T12:27:06;100134.39;;;30.51;59.29
68077;BME280;54866;53.458;14.540;2022-08-19T12:29:37;100131.80;;;30.71;57.97
68077;BME280;54866;53.458;14.540;2022-08-19T12:32:07;100130.49;;;30.72;57.96
68077;BME280;54866;53.458;14.540;2022-08-19T12:34:37;100136.55;;;30.65;58.57
68077;BME280;54866;53.458;14.540;2022-08-19T12:37:09;100134.02;;;30.59;59.53
68077;BME280;54866;53.458;14.540;2022-08-19T12:39:41;100133.05;;;30.55;59.39
68077;BME280;54866;53.458;14.540;2022-08-19T12:42:13;100128.31;;;30.47;59.53
68077;BME280;54866;53.458;14.540;2022-08-19T12:44:42;100125.86;;;30.37;59.25
68077;BME280;54866;53.458;14.540;2022-08-19T12:47:13;100121.38;;;30.16;59.37
68077;BME280;54866;53.458;14.540;2022-08-19T12:49:44;100129.15;;;29.97;59.89
68077;BME280;54866;53.458;14.540;2022-08-19T12:52:16;100127.71;;;29.66;60.15
68077;BME280;54866;53.458;14.540;2022-08-19T12:54:49;100132.23;;;29.34;60.62
68077;BME280;54866;53.458;14.540;2022-08-19T12:57:21;100127.31;;;29.06;61.44
68077;BME280;54866;53.458;14.540;2022-08-19T12:59:53;100123.14;;;28.95;62.06
68077;BME280;54866;53.458;14.540;2022-08-19T13:02:24;100122.48;;;28.85;62.24
68077;BME280;54866;53.458;14.540;2022-08-19T13:04:55;100117.31;;;28.83;62.74